Terminal Aerodrome Forecast
Issued by NWS

Home | Current Version | Previous Version | Text Only | Print | Product List | Glossary On
Versions: 1 2 3 4 5 6 7 8 9 10 11 12 13 14 15 16 17 18
000
FTUS42 KMLB 291100
TAFSUA
TAF
KSUA 291138Z 2912/3012 00000KT P6SM SCT010 SCT020
      TEMPO 2912/2913 2SM BR BKN010
     FM291300 19005KT P6SM VCSH SCT020 BKN030
     FM291800 15009KT P6SM SCT040 SCT250
     FM300100 19005KT P6SM SCT030 BKN250
     FM300800 VRB03KT 4SM BR SCT003 BKN010 OVC030=

USA.gov is the U.S. government's official web portal to all federal, state and local government web resources and services.